createdAt,value
2019-05-16T00:00:28.934Z,1.47
2019-05-16T00:02:58.845Z,1.40
2019-05-16T00:05:28.049Z,1.27
2019-05-16T00:07:58.987Z,1.60
2019-05-16T00:10:28.116Z,1.40
2019-05-16T00:12:59.256Z,1.27
2019-05-16T00:15:28.728Z,1.40
2019-05-16T00:17:58.352Z,1.50
2019-05-16T00:20:28.517Z,1.53
2019-05-16T00:22:58.884Z,1.47
2019-05-16T00:25:28.535Z,1.53
2019-05-16T00:27:58.663Z,1.47
2019-05-16T00:30:28.816Z,1.50
2019-05-16T00:32:58.778Z,1.40
2019-05-16T00:35:28.511Z,1.50
2019-05-16T00:37:59.114Z,1.40
2019-05-16T00:40:28.041Z,1.30
2019-05-16T00:42:58.639Z,1.30
2019-05-16T00:45:29.184Z,1.50
2019-05-16T00:47:58.515Z,1.30
2019-05-16T00:50:28.925Z,1.50
2019-05-16T00:52:58.907Z,1.50
2019-05-16T00:55:29.867Z,1.27
2019-05-16T00:57:58.864Z,1.63
2019-05-16T01:00:45.396Z,1.70
2019-05-16T01:03:14.439Z,1.50
2019-05-16T01:05:43.811Z,1.47
2019-05-16T01:08:12.693Z,1.40
2019-05-16T01:10:41.598Z,1.40
2019-05-16T01:13:10.193Z,1.50
2019-05-16T01:15:38.705Z,1.40
2019-05-16T01:18:08.034Z,1.47
2019-05-16T01:20:38.646Z,1.43
2019-05-16T01:23:08.933Z,1.30
2019-05-16T01:25:38.814Z,1.40
2019-05-16T01:28:08.830Z,1.23
2019-05-16T01:30:38.057Z,1.37
2019-05-16T01:33:08.862Z,1.60
2019-05-16T01:35:38.627Z,1.47
2019-05-16T01:38:08.716Z,2.60
2019-05-16T01:40:38.736Z,1.30
2019-05-16T01:43:08.550Z,1.33
2019-05-16T01:45:38.456Z,1.47
2019-05-16T01:48:08.284Z,1.40
2019-05-16T01:50:38.775Z,1.40
2019-05-16T01:53:08.622Z,1.27
2019-05-16T01:55:38.143Z,1.50
2019-05-16T01:58:08.011Z,1.53
2019-05-16T02:00:48.485Z,1.43
2019-05-16T02:03:08.385Z,1.33
2019-05-16T02:05:38.721Z,1.50
2019-05-16T02:08:08.879Z,1.50
2019-05-16T02:10:37.973Z,1.70
2019-05-16T02:13:08.529Z,1.50
2019-05-16T02:15:38.324Z,1.53
2019-05-16T02:18:08.194Z,1.73
2019-05-16T02:20:39.198Z,1.73
2019-05-16T02:23:08.053Z,1.40
2019-05-16T02:25:38.217Z,1.90
2019-05-16T02:28:06.874Z,1.40
2019-05-16T02:30:35.410Z,1.47
2019-05-16T02:33:04.012Z,1.70
2019-05-16T02:35:32.517Z,1.60
2019-05-16T02:38:01.280Z,1.50
2019-05-16T02:40:31.290Z,1.40
2019-05-16T02:43:01.537Z,1.70
2019-05-16T02:45:32.376Z,1.57
2019-05-16T02:48:21.380Z,1.63
2019-05-16T02:50:51.297Z,1.83
2019-05-16T02:53:22.419Z,1.50
2019-05-16T02:55:51.801Z,1.63
2019-05-16T02:58:23.329Z,1.60
2019-05-16T03:00:51.576Z,1.60
2019-05-16T03:03:21.387Z,2.03
2019-05-16T03:05:50.946Z,2.43
2019-05-16T03:08:21.159Z,1.50
2019-05-16T03:10:51.979Z,1.80
2019-05-16T03:13:22.353Z,1.50
2019-05-16T03:15:51.556Z,2.37
2019-05-16T03:18:22.962Z,1.60
2019-05-16T03:20:52.540Z,1.87
2019-05-16T03:23:21.768Z,1.60
2019-05-16T03:25:50.845Z,1.67
2019-05-16T03:28:22.367Z,1.60
2019-05-16T03:30:54.344Z,1.77
2019-05-16T03:33:30.794Z,2.00
2019-05-16T03:35:54.422Z,1.70
2019-05-16T03:38:21.300Z,1.70
2019-05-16T03:40:50.978Z,1.87
2019-05-16T03:43:21.914Z,1.83
2019-05-16T03:45:52.123Z,1.63
2019-05-16T03:48:21.347Z,1.70
2019-05-16T03:50:50.916Z,1.70
2019-05-16T03:53:21.298Z,1.70
2019-05-16T03:55:51.898Z,1.80
2019-05-16T03:58:22.566Z,1.80
2019-05-16T04:00:55.511Z,1.60
2019-05-16T04:03:28.189Z,1.93
2019-05-16T04:05:54.376Z,1.70
2019-05-16T04:08:25.023Z,1.93
2019-05-16T04:10:53.044Z,2.10
2019-05-16T04:13:22.089Z,1.80
2019-05-16T04:15:52.385Z,2.00
2019-05-16T04:18:21.957Z,1.90
2019-05-16T04:20:52.256Z,1.80
2019-05-16T04:23:21.181Z,2.20
2019-05-16T04:25:52.245Z,1.63
2019-05-16T04:28:21.926Z,2.40
2019-05-16T04:30:50.955Z,1.90
2019-05-16T04:33:22.140Z,1.90
2019-05-16T04:35:52.348Z,1.87
2019-05-16T04:38:34.883Z,1.60
2019-05-16T04:40:52.212Z,1.90
2019-05-16T04:43:22.211Z,1.93
2019-05-16T04:45:52.317Z,1.97
2019-05-16T04:48:22.387Z,2.30
2019-05-16T04:50:52.128Z,1.90
2019-05-16T04:53:21.476Z,1.93
2019-05-16T04:55:51.731Z,2.00
2019-05-16T04:58:23.209Z,2.00
2019-05-16T05:00:51.988Z,2.10
2019-05-16T05:03:21.971Z,1.90
2019-05-16T05:05:51.762Z,1.97
2019-05-16T05:08:21.924Z,1.73
2019-05-16T05:10:51.753Z,2.50
2019-05-16T05:13:22.098Z,2.43
2019-05-16T05:15:51.560Z,2.00
2019-05-16T05:18:21.265Z,1.80
2019-05-16T05:20:52.380Z,2.10
2019-05-16T05:23:21.021Z,2.50
2019-05-16T05:25:51.291Z,2.33
2019-05-16T05:28:21.061Z,2.07
2019-05-16T05:30:50.584Z,2.07
2019-05-16T05:33:21.178Z,2.20
2019-05-16T05:35:50.651Z,2.03
2019-05-16T05:38:21.237Z,2.90
2019-05-16T05:40:51.219Z,2.20
2019-05-16T05:43:21.464Z,2.47
2019-05-16T05:45:51.298Z,2.47
2019-05-16T05:48:21.493Z,2.10
2019-05-16T05:50:50.945Z,2.60
2019-05-16T05:53:20.836Z,2.17
2019-05-16T05:55:51.249Z,2.30
2019-05-16T05:58:40.753Z,2.00
2019-05-16T06:01:11.078Z,1.90
2019-05-16T06:03:39.946Z,2.23
2019-05-16T06:06:10.568Z,1.90
2019-05-16T06:08:40.758Z,2.17
2019-05-16T06:11:10.013Z,2.03
2019-05-16T06:13:40.483Z,2.13
2019-05-16T06:16:10.840Z,2.30
2019-05-16T06:18:39.692Z,2.20
2019-05-16T06:21:11.200Z,2.37
2019-05-16T06:23:40.316Z,2.40
2019-05-16T06:26:11.853Z,1.97
2019-05-16T06:28:41.266Z,2.07
2019-05-16T06:31:14.033Z,2.20
2019-05-16T06:33:41.122Z,2.10
2019-05-16T06:36:11.015Z,2.20
2019-05-16T06:38:40.557Z,2.20
2019-05-16T06:41:10.651Z,2.20
2019-05-16T06:43:40.046Z,2.30
2019-05-16T06:46:10.813Z,1.90
2019-05-16T06:48:39.814Z,2.07
2019-05-16T06:51:10.586Z,1.90
2019-05-16T06:53:40.453Z,2.10
2019-05-16T06:56:10.478Z,2.00
2019-05-16T06:58:47.666Z,2.00
2019-05-16T07:01:10.326Z,2.00
2019-05-16T07:03:40.073Z,1.73
2019-05-16T07:06:11.133Z,2.07
2019-05-16T07:08:40.296Z,2.37
2019-05-16T07:11:10.519Z,1.77
2019-05-16T07:13:40.622Z,2.07
2019-05-16T07:16:09.714Z,2.13
2019-05-16T07:18:40.186Z,2.13
2019-05-16T07:21:10.934Z,2.23
2019-05-16T07:23:40.435Z,2.00
2019-05-16T07:26:09.929Z,1.97
2019-05-16T07:28:40.607Z,1.97
2019-05-16T07:31:15.694Z,1.70
2019-05-16T07:33:40.636Z,2.00
2019-05-16T07:36:09.891Z,2.23
2019-05-16T07:38:40.064Z,2.00
2019-05-16T07:41:11.054Z,2.00
2019-05-16T07:43:40.101Z,2.20
2019-05-16T07:46:11.021Z,2.13
2019-05-16T07:48:40.387Z,2.10
2019-05-16T07:51:10.429Z,2.13
2019-05-16T07:53:40.301Z,1.80
2019-05-16T07:56:10.613Z,1.80
2019-05-16T07:58:41.341Z,1.70
2019-05-16T08:01:12.421Z,1.90
2019-05-16T08:03:43.670Z,2.03
2019-05-16T08:06:10.923Z,1.90
2019-05-16T08:08:40.397Z,2.03
2019-05-16T08:11:11.817Z,1.93
2019-05-16T08:13:39.985Z,2.00
2019-05-16T08:16:10.252Z,2.07
2019-05-16T08:18:44.727Z,1.87
2019-05-16T08:21:11.466Z,2.20
2019-05-16T08:23:41.125Z,2.07
2019-05-16T08:26:10.367Z,1.97
2019-05-16T08:28:41.234Z,2.00
2019-05-16T08:31:11.773Z,2.30
2019-05-16T08:33:41.638Z,2.17
2019-05-16T08:36:11.908Z,2.30
2019-05-16T08:38:43.017Z,1.87
2019-05-16T08:41:31.497Z,1.80
2019-05-16T08:44:01.110Z,2.20
2019-05-16T08:46:32.312Z,1.80
2019-05-16T08:49:01.051Z,2.07
2019-05-16T08:51:33.320Z,2.20
2019-05-16T08:54:01.587Z,1.90
2019-05-16T08:56:31.749Z,2.10
2019-05-16T08:59:02.434Z,2.30
2019-05-16T09:01:34.889Z,2.00
2019-05-16T09:04:01.583Z,2.07
2019-05-16T09:06:32.009Z,2.00
2019-05-16T09:09:12.320Z,2.10
2019-05-16T09:11:40.494Z,2.37
2019-05-16T09:14:01.066Z,2.27
2019-05-16T09:16:29.499Z,2.40
2019-05-16T09:18:58.042Z,2.00
2019-05-16T09:21:27.454Z,2.03
2019-05-16T09:23:57.823Z,2.90
2019-05-16T09:26:28.626Z,2.00
2019-05-16T09:28:57.374Z,2.10
2019-05-16T09:31:27.578Z,2.07
2019-05-16T09:33:56.827Z,1.97
2019-05-16T09:36:27.761Z,2.93
2019-05-16T09:38:57.782Z,2.20
2019-05-16T09:41:28.777Z,2.50
2019-05-16T09:43:58.853Z,2.13
2019-05-16T09:46:27.573Z,2.10
2019-05-16T09:49:15.878Z,2.13
2019-05-16T09:51:27.140Z,2.40
2019-05-16T09:53:56.729Z,2.30
2019-05-16T09:56:27.006Z,1.90
2019-05-16T09:58:57.444Z,1.90
2019-05-16T10:01:27.569Z,2.10
2019-05-16T10:03:56.263Z,2.13
2019-05-16T10:06:27.429Z,2.10
2019-05-16T10:08:56.871Z,2.40
2019-05-16T10:11:30.287Z,2.40
2019-05-16T10:13:55.329Z,2.00
2019-05-16T10:16:23.785Z,2.13
2019-05-16T10:18:52.224Z,2.13
2019-05-16T10:21:20.830Z,1.90
2019-05-16T10:23:49.390Z,2.30
2019-05-16T10:26:19.440Z,2.20
2019-05-16T10:28:48.148Z,2.20
2019-05-16T10:31:17.869Z,2.10
2019-05-16T10:33:47.681Z,2.40
2019-05-16T10:36:17.172Z,2.00
2019-05-16T10:38:48.340Z,2.40
2019-05-16T10:41:16.909Z,2.20
2019-05-16T10:43:47.285Z,2.20
2019-05-16T10:46:17.780Z,2.17
2019-05-16T10:48:46.938Z,2.13
2019-05-16T10:51:16.981Z,2.40
2019-05-16T10:54:02.385Z,2.40
2019-05-16T10:56:15.897Z,2.43
2019-05-16T10:59:05.000Z,2.57
2019-05-16T11:01:26.553Z,2.50
2019-05-16T11:03:48.860Z,2.30
2019-05-16T11:06:25.256Z,2.27
2019-05-16T11:08:46.573Z,2.50
2019-05-16T11:11:19.709Z,2.43
2019-05-16T11:13:47.193Z,2.50
2019-05-16T11:16:17.467Z,2.63
2019-05-16T11:18:46.038Z,2.73
2019-05-16T11:21:18.951Z,2.83
2019-05-16T11:23:46.969Z,2.90
2019-05-16T11:26:14.826Z,2.50
2019-05-16T11:28:43.366Z,2.40
2019-05-16T11:31:11.815Z,2.53
2019-05-16T11:33:40.306Z,2.43
2019-05-16T11:36:12.580Z,2.33
2019-05-16T11:38:39.023Z,2.70
2019-05-16T11:41:07.820Z,2.67
2019-05-16T11:43:36.773Z,2.63
2019-05-16T11:46:05.437Z,3.10
2019-05-16T11:48:33.938Z,2.90
2019-05-16T11:51:02.423Z,3.17
2019-05-16T11:53:30.938Z,3.13
2019-05-16T11:56:01.487Z,2.97
2019-05-16T11:58:29.609Z,3.00
2019-05-16T12:00:58.119Z,2.90
2019-05-16T12:03:28.215Z,3.20
2019-05-16T12:05:57.996Z,3.20
2019-05-16T12:08:26.774Z,3.27
2019-05-16T12:10:55.309Z,3.13
2019-05-16T12:13:28.415Z,3.30
2019-05-16T12:15:56.589Z,3.07
2019-05-16T12:18:26.644Z,2.63
2019-05-16T12:20:56.622Z,2.80
2019-05-16T12:23:27.497Z,3.33
2019-05-16T12:25:56.576Z,3.53
2019-05-16T12:28:27.220Z,5.70
2019-05-16T12:30:56.295Z,3.03
2019-05-16T12:33:27.458Z,3.60
2019-05-16T12:35:57.446Z,3.27
2019-05-16T12:38:27.610Z,3.97
2019-05-16T12:40:56.518Z,3.37
2019-05-16T12:43:43.315Z,3.60
2019-05-16T12:45:56.986Z,3.70
2019-05-16T12:48:25.406Z,3.40
2019-05-16T12:50:53.852Z,3.70
2019-05-16T12:53:23.566Z,3.93
2019-05-16T12:55:52.563Z,3.27
2019-05-16T12:58:26.010Z,3.60
2019-05-16T13:00:57.362Z,3.57
2019-05-16T13:03:21.472Z,3.70
2019-05-16T13:05:50.806Z,3.43
2019-05-16T13:08:19.272Z,3.93
2019-05-16T13:10:47.736Z,3.63
2019-05-16T13:13:17.626Z,3.73
2019-05-16T13:15:47.511Z,3.30
2019-05-16T13:18:17.024Z,3.70
2019-05-16T13:20:46.760Z,4.40
2019-05-16T13:23:18.110Z,3.53
2019-05-16T13:25:48.204Z,4.03
2019-05-16T13:28:16.034Z,3.80
2019-05-16T13:30:46.931Z,3.83
2019-05-16T13:33:14.657Z,3.80
2019-05-16T13:35:43.195Z,3.80
2019-05-16T13:38:11.681Z,4.40
2019-05-16T13:40:40.458Z,4.80
2019-05-16T13:43:10.302Z,3.87
2019-05-16T13:45:39.133Z,3.67
2019-05-16T13:48:08.237Z,4.13
2019-05-16T13:50:39.697Z,4.77
2019-05-16T13:53:07.961Z,4.10
2019-05-16T13:55:37.861Z,4.27
2019-05-16T13:58:07.654Z,3.90
2019-05-16T14:00:37.570Z,4.50
2019-05-16T14:03:07.319Z,3.90
2019-05-16T14:05:37.988Z,4.50
2019-05-16T14:08:06.942Z,4.13
2019-05-16T14:11:00.781Z,4.43
2019-05-16T14:13:27.484Z,4.90
2019-05-16T14:15:55.370Z,4.50
2019-05-16T14:18:23.841Z,4.80
2019-05-16T14:20:52.315Z,4.03
2019-05-16T14:23:20.808Z,4.27
2019-05-16T14:25:49.337Z,4.33
2019-05-16T14:28:17.916Z,4.00
2019-05-16T14:30:46.860Z,4.50
2019-05-16T14:33:17.246Z,4.37
2019-05-16T14:35:47.275Z,4.87
2019-05-16T14:38:17.626Z,4.70
2019-05-16T14:40:50.037Z,4.27
2019-05-16T14:43:17.266Z,4.37
2019-05-16T14:45:46.635Z,4.70
2019-05-16T14:48:18.186Z,4.57
2019-05-16T14:50:47.096Z,5.20
2019-05-16T14:53:17.883Z,4.70
2019-05-16T14:55:47.615Z,4.90
2019-05-16T14:58:16.442Z,4.53
2019-05-16T15:00:48.429Z,4.73
2019-05-16T15:03:17.892Z,4.47
2019-05-16T15:05:48.074Z,4.90
2019-05-16T15:08:18.221Z,5.03
2019-05-16T15:10:46.843Z,4.73
2019-05-16T15:13:17.442Z,4.60
2019-05-16T15:15:46.545Z,5.60
2019-05-16T15:18:17.766Z,5.07
2019-05-16T15:20:46.972Z,4.73
2019-05-16T15:23:17.556Z,4.93
2019-05-16T15:25:45.882Z,5.07
2019-05-16T15:28:17.011Z,5.47
2019-05-16T15:30:46.820Z,5.67
2019-05-16T15:33:16.840Z,5.23
2019-05-16T15:35:47.034Z,5.40
2019-05-16T15:38:16.654Z,6.30
2019-05-16T15:40:47.917Z,6.53
2019-05-16T15:43:18.250Z,6.27
2019-05-16T15:45:49.919Z,6.67
2019-05-16T15:48:17.249Z,7.07
2019-05-16T15:50:46.184Z,7.47
2019-05-16T15:53:14.698Z,6.50
2019-05-16T15:55:43.705Z,6.00
2019-05-16T15:58:12.208Z,5.90
2019-05-16T16:00:48.199Z,5.83
2019-05-16T16:03:17.564Z,6.37
2019-05-16T16:05:46.381Z,6.47
2019-05-16T16:08:17.828Z,6.60
2019-05-16T16:10:47.795Z,6.80
2019-05-16T16:13:19.416Z,6.57
2019-05-16T16:15:53.196Z,6.10
2019-05-16T16:18:19.480Z,10.00
2019-05-16T16:20:47.794Z,5.67
2019-05-16T16:23:17.729Z,6.37
2019-05-16T16:25:50.809Z,6.50
2019-05-16T16:28:17.684Z,6.13
2019-05-16T16:30:47.917Z,5.87
2019-05-16T16:33:22.553Z,6.83
2019-05-16T16:35:47.937Z,6.07
2019-05-16T16:38:17.102Z,6.53
2019-05-16T16:40:47.821Z,6.27
2019-05-16T16:43:15.905Z,5.93
2019-05-16T16:45:44.370Z,7.00
2019-05-16T16:48:12.882Z,7.03
2019-05-16T16:50:41.349Z,8.00
2019-05-16T16:53:09.806Z,7.73
2019-05-16T16:55:38.255Z,7.00
2019-05-16T16:58:09.648Z,7.23
2019-05-16T17:00:37.770Z,7.13
2019-05-16T17:03:10.424Z,8.73
2019-05-16T17:05:37.204Z,9.40
2019-05-16T17:08:07.649Z,9.13
2019-05-16T17:10:38.029Z,11.33
2019-05-16T17:13:07.000Z,8.70
2019-05-16T17:15:36.728Z,8.53
2019-05-16T17:18:06.996Z,8.70
2019-05-16T17:20:37.131Z,8.60
2019-05-16T17:23:06.774Z,9.23
2019-05-16T17:25:36.651Z,9.50
2019-05-16T17:28:07.128Z,10.00
2019-05-16T17:30:36.853Z,11.03
2019-05-16T17:33:07.744Z,10.50
2019-05-16T17:35:38.531Z,10.87
2019-05-16T17:38:06.766Z,10.53
2019-05-16T17:40:38.107Z,9.50
2019-05-16T17:43:07.328Z,10.37
2019-05-16T17:45:37.630Z,11.53
2019-05-16T17:48:06.991Z,11.10
2019-05-16T17:50:37.326Z,12.90
2019-05-16T17:53:07.292Z,13.27
2019-05-16T17:55:36.909Z,13.67
2019-05-16T17:58:08.726Z,14.90
2019-05-16T18:00:36.628Z,12.70
2019-05-16T18:03:06.668Z,13.57
2019-05-16T18:05:37.164Z,14.47
2019-05-16T18:08:07.411Z,13.57
2019-05-16T18:10:36.680Z,13.50
2019-05-16T18:13:07.805Z,13.87
2019-05-16T18:15:36.714Z,13.20
2019-05-16T18:18:07.222Z,14.60
2019-05-16T18:20:37.311Z,13.73
2019-05-16T18:23:06.967Z,14.07
2019-05-16T18:25:36.494Z,13.43
2019-05-16T18:28:07.872Z,13.63
2019-05-16T18:30:36.580Z,13.73
2019-05-16T18:33:07.255Z,15.77
2019-05-16T18:35:37.058Z,13.83
2019-05-16T18:38:07.453Z,15.47
2019-05-16T18:40:36.970Z,15.10
2019-05-16T18:43:08.116Z,17.63
2019-05-16T18:45:36.636Z,22.53
2019-05-16T18:48:07.338Z,19.43
2019-05-16T18:50:37.653Z,19.47
2019-05-16T18:53:07.125Z,20.67
2019-05-16T18:55:37.257Z,21.43
2019-05-16T18:58:08.663Z,21.63
2019-05-16T19:00:37.591Z,23.60
2019-05-16T19:03:07.858Z,24.20
2019-05-16T19:05:37.251Z,24.03
2019-05-16T19:08:07.263Z,24.83
2019-05-16T19:10:36.858Z,26.87
2019-05-16T19:13:08.183Z,26.47
2019-05-16T19:15:37.405Z,25.90
2019-05-16T19:18:06.935Z,25.57
2019-05-16T19:20:37.608Z,28.87
2019-05-16T19:23:07.399Z,28.80
2019-05-16T19:25:36.121Z,27.43
2019-05-16T19:28:06.981Z,27.27
2019-05-16T19:30:37.430Z,27.63
2019-05-16T19:33:06.927Z,27.47
2019-05-16T19:35:36.047Z,27.40
2019-05-16T19:38:06.772Z,24.97
2019-05-16T19:40:37.554Z,26.30
2019-05-16T19:43:07.342Z,24.30
2019-05-16T19:45:37.252Z,24.37
2019-05-16T19:48:07.152Z,24.57
2019-05-16T19:50:37.148Z,24.90
2019-05-16T19:53:07.690Z,25.80
2019-05-16T19:55:36.653Z,25.43
2019-05-16T19:58:06.928Z,26.03
2019-05-16T20:00:37.629Z,24.53
2019-05-16T20:03:07.610Z,26.30
2019-05-16T20:05:37.595Z,25.67
2019-05-16T20:08:06.896Z,23.37
2019-05-16T20:10:36.775Z,24.07
2019-05-16T20:13:07.493Z,24.47
2019-05-16T20:15:36.559Z,25.13
2019-05-16T20:18:07.737Z,24.23
2019-05-16T20:20:37.180Z,23.63
2019-05-16T20:23:06.679Z,23.93
2019-05-16T20:25:36.485Z,21.77
2019-05-16T20:28:08.705Z,21.87
2019-05-16T20:30:37.123Z,24.07
2019-05-16T20:33:08.931Z,20.73
2019-05-16T20:35:37.538Z,23.47
2019-05-16T20:38:06.974Z,21.87
2019-05-16T20:40:37.503Z,23.03
2019-05-16T20:43:07.656Z,23.67
2019-05-16T20:45:39.515Z,24.67
2019-05-16T20:48:12.078Z,26.17
2019-05-16T20:50:36.629Z,24.83
2019-05-16T20:53:07.262Z,24.93
2019-05-16T20:55:37.565Z,23.17
2019-05-16T20:58:07.633Z,22.83
2019-05-16T21:00:37.821Z,23.03
2019-05-16T21:03:07.072Z,21.10
2019-05-16T21:05:38.268Z,20.70
2019-05-16T21:08:06.629Z,21.03
2019-05-16T21:10:35.331Z,23.33
2019-05-16T21:13:04.007Z,22.23
2019-05-16T21:15:32.455Z,22.63
2019-05-16T21:18:00.929Z,22.93
2019-05-16T21:20:29.838Z,23.10
2019-05-16T21:22:58.518Z,22.80
2019-05-16T21:25:27.005Z,21.73
2019-05-16T21:27:57.269Z,22.70
2019-05-16T21:30:27.383Z,21.90
2019-05-16T21:32:56.545Z,21.23
2019-05-16T21:35:27.061Z,22.40
2019-05-16T21:37:55.499Z,21.27
2019-05-16T21:40:26.288Z,26.40
2019-05-16T21:42:58.427Z,23.80
2019-05-16T21:45:28.303Z,23.90
2019-05-16T21:47:56.601Z,24.20
2019-05-16T21:50:27.358Z,24.60
2019-05-16T21:52:56.556Z,22.80
2019-05-16T21:55:27.306Z,22.23
2019-05-16T21:57:57.443Z,25.20
2019-05-16T22:00:38.660Z,25.60
2019-05-16T22:03:07.639Z,26.47
2019-05-16T22:05:37.030Z,26.27
2019-05-16T22:08:07.402Z,25.57
2019-05-16T22:10:37.321Z,26.77
2019-05-16T22:13:07.803Z,27.73
2019-05-16T22:15:36.707Z,24.60
2019-05-16T22:18:07.267Z,27.97
2019-05-16T22:20:35.611Z,27.77
2019-05-16T22:23:04.141Z,27.57
2019-05-16T22:25:32.679Z,24.87
2019-05-16T22:28:01.361Z,26.17
2019-05-16T22:30:29.978Z,26.70
2019-05-16T22:32:58.413Z,27.00
2019-05-16T22:35:27.460Z,26.47
2019-05-16T22:37:59.210Z,26.03
2019-05-16T22:40:26.803Z,25.47
2019-05-16T22:42:57.390Z,26.50
2019-05-16T22:45:27.118Z,27.87
2019-05-16T22:47:55.861Z,26.50
2019-05-16T22:50:26.922Z,26.70
2019-05-16T22:52:56.809Z,25.83
2019-05-16T22:55:26.418Z,28.37
2019-05-16T22:57:56.527Z,26.73
2019-05-16T23:00:29.535Z,25.77
2019-05-16T23:02:58.097Z,24.93
2019-05-16T23:05:27.420Z,26.30
2019-05-16T23:08:05.032Z,25.43
2019-05-16T23:10:28.097Z,26.57
2019-05-16T23:12:57.202Z,27.40
2019-05-16T23:15:26.665Z,25.40
2019-05-16T23:17:57.354Z,25.40
2019-05-16T23:20:27.805Z,24.60
2019-05-16T23:22:56.557Z,27.47
2019-05-16T23:25:25.171Z,27.27
2019-05-16T23:27:53.923Z,26.10
2019-05-16T23:30:22.537Z,25.40
2019-05-16T23:32:51.019Z,25.03
2019-05-16T23:35:19.484Z,26.97
2019-05-16T23:37:47.929Z,26.07
2019-05-16T23:40:16.604Z,26.00
2019-05-16T23:42:46.475Z,27.03
2019-05-16T23:45:17.156Z,26.47
2019-05-16T23:47:47.091Z,27.27
2019-05-16T23:50:17.011Z,25.63
2019-05-16T23:52:47.078Z,25.97
2019-05-16T23:55:17.367Z,25.30
2019-05-16T23:57:46.665Z,26.23
